Time;durP1;ratioP1;P1;durP2;ratioP2;P2;SDS_P1;SDS_P2;PMS_P1;PMS_P2;Temp;Humidity;BMP_temperature;BMP_pressure;BME280_temperature;BME280_humidity;BME280_pressure;Samples;Min_cycle;Max_cycle;Signal;HPM_P1;HPM_P2
2023/10/20 00:02:27;;;;;;;13.70;5.25;;;;;;;16.72;100.00;97513.25;7353380;19;20024;-67
2023/10/20 00:04:54;;;;;;;12.73;5.10;;;;;;;16.71;100.00;97503.69;7355865;19;20010;-66
2023/10/20 00:07:32;;;;;;;12.38;5.75;;;;;;;16.70;100.00;97503.97;7356402;19;20285;-65
2023/10/20 00:09:59;;;;;;;14.77;5.82;;;;;;;16.70;100.00;97501.31;7359808;19;20019;-67
2023/10/20 00:12:27;;;;;;;14.85;6.18;;;;;;;16.71;100.00;97498.38;7356821;19;20062;-67
2023/10/20 00:14:55;;;;;;;14.60;5.97;;;;;;;16.76;100.00;97492.25;7356903;19;20029;-67
2023/10/20 00:17:22;;;;;;;12.88;5.68;;;;;;;16.81;100.00;97484.25;7356362;19;20022;-66
2023/10/20 00:19:49;;;;;;;13.70;6.53;;;;;;;16.80;100.00;97477.34;7356475;19;20018;-66
2023/10/20 00:22:16;;;;;;;14.13;5.95;;;;;;;16.84;100.00;97479.19;7357245;19;20074;-67
2023/10/20 00:24:45;;;;;;;15.90;6.72;;;;;;;16.83;100.00;97468.81;7355305;19;20010;-67
2023/10/20 00:27:13;;;;;;;12.88;6.13;;;;;;;16.87;100.00;97462.69;7354983;19;20117;-66
2023/10/20 00:29:40;;;;;;;12.00;6.75;;;;;;;16.89;100.00;97463.22;7368832;19;20010;-67
2023/10/20 00:32:10;;;;;;;12.13;7.25;;;;;;;16.91;100.00;97454.97;7356559;19;20054;-67
2023/10/20 00:34:37;;;;;;;14.57;6.75;;;;;;;16.88;100.00;97448.34;7354276;19;20041;-67
2023/10/20 00:37:04;;;;;;;11.77;5.30;;;;;;;16.88;100.00;97445.69;7357018;19;20085;-66
2023/10/20 00:39:32;;;;;;;11.02;5.30;;;;;;;16.89;100.00;97441.97;7355266;19;20022;-66
2023/10/20 00:41:59;;;;;;;11.98;4.55;;;;;;;16.87;100.00;97428.16;7357805;19;20498;-66
2023/10/20 00:44:25;;;;;;;10.55;3.75;;;;;;;16.89;100.00;97425.22;7354965;19;20033;-67
2023/10/20 00:46:53;;;;;;;8.35;3.85;;;;;;;16.87;100.00;97420.19;7353094;19;20010;-67
2023/10/20 00:49:20;;;;;;;11.90;4.38;;;;;;;16.91;100.00;97423.09;7350261;19;20090;-67
2023/10/20 00:51:47;;;;;;;11.80;4.93;;;;;;;16.89;100.00;97407.44;7356103;19;20346;-67
2023/10/20 00:54:15;;;;;;;13.68;5.78;;;;;;;16.94;100.00;97417.22;7349545;19;21601;-67
2023/10/20 00:56:42;;;;;;;14.10;6.82;;;;;;;16.91;100.00;97425.75;7356311;19;20019;-67
2023/10/20 00:59:09;;;;;;;18.10;7.43;;;;;;;16.94;100.00;97415.38;7355788;19;20558;-66
2023/10/20 01:01:37;;;;;;;19.15;8.10;;;;;;;16.96;100.00;97396.50;7364119;19;20487;-66
2023/10/20 01:04:06;;;;;;;16.02;6.78;;;;;;;16.96;100.00;97388.53;7352008;19;20530;-67
2023/10/20 01:06:36;;;;;;;14.73;7.25;;;;;;;16.96;100.00;97391.97;7356402;19;20372;-66
2023/10/20 01:09:03;;;;;;;12.18;6.50;;;;;;;17.02;100.00;97382.06;7356150;19;20522;-67
2023/10/20 01:11:30;;;;;;;10.57;6.18;;;;;;;17.01;100.00;97368.03;7355963;19;20094;-68
2023/10/20 01:13:57;;;;;;;10.27;5.03;;;;;;;17.01;100.00;97369.91;7352445;19;20035;-66
2023/10/20 01:16:25;;;;;;;14.07;6.60;;;;;;;16.96;100.00;97369.94;7352968;19;20580;-67
2023/10/20 01:18:52;;;;;;;12.40;5.95;;;;;;;16.96;100.00;97365.44;7351784;19;20010;-67
2023/10/20 01:21:18;;;;;;;9.98;5.15;;;;;;;16.96;100.00;97356.66;7355995;19;20581;-67
2023/10/20 01:23:45;;;;;;;12.38;6.03;;;;;;;16.97;100.00;97352.91;7355158;19;20036;-67
2023/10/20 01:26:12;;;;;;;11.02;5.78;;;;;;;16.98;100.00;97344.66;7355150;19;20021;-66
2023/10/20 01:28:39;;;;;;;13.80;7.20;;;;;;;17.01;100.00;97340.69;7353608;19;20014;-67
2023/10/20 01:31:06;;;;;;;10.38;6.03;;;;;;;17.02;100.00;97343.03;7357140;19;20020;-67
2023/10/20 01:33:34;;;;;;;11.10;5.82;;;;;;;17.03;100.00;97338.50;7350446;19;20015;-67
2023/10/20 01:36:01;;;;;;;13.48;6.50;;;;;;;17.04;100.00;97337.44;7354698;19;20396;-67
2023/10/20 01:38:28;;;;;;;10.43;5.60;;;;;;;17.04;100.00;97324.16;7352335;19;20573;-66
2023/10/20 01:40:56;;;;;;;54.40;8.82;;;;;;;17.04;100.00;97322.31;7353742;19;20514;-67
2023/10/20 01:43:23;;;;;;;8.10;4.60;;;;;;;17.09;100.00;97311.63;7354480;19;20041;-66
2023/10/20 01:45:50;;;;;;;6.65;4.30;;;;;;;17.13;100.00;97303.88;7355684;19;20014;-67
2023/10/20 01:48:17;;;;;;;10.95;5.30;;;;;;;17.12;100.00;97299.63;7348347;19;20724;-68
2023/10/20 01:50:45;;;;;;;10.05;5.90;;;;;;;17.13;100.00;97295.91;7355777;19;20078;-66
2023/10/20 01:53:12;;;;;;;10.85;5.78;;;;;;;17.15;100.00;97280.47;7352988;19;20114;-66
2023/10/20 01:55:40;;;;;;;10.52;6.32;;;;;;;17.17;100.00;97275.66;7353061;19;20019;-66
2023/10/20 01:58:07;;;;;;;12.95;7.15;;;;;;;17.18;100.00;97289.72;7354489;19;20724;-67
2023/10/20 02:00:35;;;;;;;12.02;7.43;;;;;;;17.21;100.00;97276.69;7355665;19;20097;-68
2023/10/20 02:03:02;;;;;;;14.75;7.97;;;;;;;17.19;100.00;97273.53;7350012;19;20034;-68
2023/10/20 02:05:30;;;;;;;12.27;8.60;;;;;;;17.20;100.00;97271.66;7353410;19;20082;-67
2023/10/20 02:07:57;;;;;;;14.57;8.43;;;;;;;17.21;100.00;97267.94;7355616;19;20049;-67
2023/10/20 02:10:25;;;;;;;12.63;8.52;;;;;;;17.21;100.00;97267.94;7354534;19;20014;-67
2023/10/20 02:12:52;;;;;;;15.45;9.40;;;;;;;17.18;100.00;97261.31;7355430;19;21319;-67
2023/10/20 02:15:19;;;;;;;15.50;9.85;;;;;;;17.19;100.00;97257.56;7354548;19;20017;-67
2023/10/20 02:17:46;;;;;;;121.53;14.10;;;;;;;17.23;100.00;97255.94;7351850;19;20014;-67
2023/10/20 02:20:15;;;;;;;12.27;7.78;;;;;;;17.25;100.00;97245.81;7353450;19;21668;-67
2023/10/20 02:22:43;;;;;;;15.38;9.10;;;;;;;17.28;100.00;97239.13;7354463;19;20027;-67
2023/10/20 02:25:10;;;;;;;13.68;8.52;;;;;;;17.27;100.00;97233.03;7351802;19;20014;-67
2023/10/20 02:27:39;;;;;;;13.52;8.40;;;;;;;17.27;100.00;97229.59;7354312;19;20025;-67
2023/10/20 02:30:08;;;;;;;13.15;7.78;;;;;;;17.26;100.00;97220.03;7356898;19;20807;-67
2023/10/20 02:32:35;;;;;;;12.80;7.53;;;;;;;17.24;100.00;97222.97;7356951;19;21295;-67
2023/10/20 02:35:02;;;;;;;11.82;7.30;;;;;;;17.24;100.00;97206.22;7361303;19;20086;-67
2023/10/20 02:37:30;;;;;;;12.27;7.63;;;;;;;17.26;100.00;97204.88;7361652;19;20014;-67
2023/10/20 02:39:57;;;;;;;13.45;7.53;;;;;;;17.27;100.00;97206.44;7360532;19;20360;-67
2023/10/20 02:42:24;;;;;;;11.38;7.07;;;;;;;17.24;100.00;97196.41;7360451;19;20025;-66
2023/10/20 02:44:51;;;;;;;15.40;7.68;;;;;;;17.24;100.00;97183.13;7360703;19;20297;-66
2023/10/20 02:47:18;;;;;;;14.90;8.55;;;;;;;17.25;100.00;97187.34;7358384;19;20021;-65
2023/10/20 02:49:45;;;;;;;11.43;8.30;;;;;;;17.25;100.00;97181.25;7355858;19;20090;-68
2023/10/20 02:52:13;;;;;;;13.80;9.27;;;;;;;17.26;100.00;97158.91;7357598;19;20523;-65
2023/10/20 02:54:40;;;;;;;19.10;10.10;;;;;;;17.27;100.00;97161.28;7360016;19;20537;-66
2023/10/20 02:57:07;;;;;;;15.52;9.68;;;;;;;17.31;100.00;97158.84;7363403;19;20018;-66
2023/10/20 02:59:34;;;;;;;14.45;8.93;;;;;;;17.30;100.00;97146.63;7360707;19;20027;-66
2023/10/20 03:02:01;;;;;;;14.98;9.13;;;;;;;17.30;100.00;97128.81;7359068;19;20021;-66
2023/10/20 03:04:29;;;;;;;12.43;7.88;;;;;;;17.30;100.00;97120.06;7357604;19;20737;-67
2023/10/20 03:06:56;;;;;;;10.65;6.20;;;;;;;17.30;100.00;97106.78;7361458;19;20043;-67
2023/10/20 03:09:23;;;;;;;8.90;6.38;;;;;;;17.28;100.00;97095.63;7360084;19;20026;-67
2023/10/20 03:11:50;;;;;;;10.40;6.72;;;;;;;17.27;100.00;97086.88;7355749;19;20025;-67
2023/10/20 03:14:17;;;;;;;9.73;7.43;;;;;;;17.26;100.00;97084.50;7359562;19;20018;-68
2023/10/20 03:16:45;;;;;;;11.07;8.25;;;;;;;17.25;100.00;97075.75;7359915;19;20010;-68
2023/10/20 03:19:12;;;;;;;7.68;6.57;;;;;;;17.23;100.00;97069.13;7355158;19;20114;-67
2023/10/20 03:21:39;;;;;;;9.20;6.05;;;;;;;17.20;100.00;97069.72;7357567;19;20018;-67
2023/10/20 03:24:09;;;;;;;7.68;5.55;;;;;;;17.17;100.00;97063.09;7360913;19;20620;-67
2023/10/20 03:26:36;;;;;;;8.43;5.13;;;;;;;17.22;100.00;97062.25;7360775;19;20043;-67
2023/10/20 03:29:04;;;;;;;7.28;4.70;;;;;;;17.22;100.00;97044.44;7362931;19;20020;-68
2023/10/20 03:31:32;;;;;;;7.78;5.25;;;;;;;17.27;100.00;97044.34;7363024;19;20024;-67
2023/10/20 03:33:59;;;;;;;8.80;5.03;;;;;;;17.24;100.00;97041.50;7356909;19;20018;-67
2023/10/20 03:36:27;;;;;;;8.80;5.00;;;;;;;17.28;100.00;97034.50;7357489;19;20034;-67
2023/10/20 03:38:54;;;;;;;9.02;4.45;;;;;;;17.27;100.00;97033.72;7358779;19;20086;-67
2023/10/20 03:41:22;;;;;;;10.15;4.22;;;;;;;17.23;100.00;97034.59;7361004;19;20018;-67
2023/10/20 03:43:50;;;;;;;8.15;4.25;;;;;;;17.21;100.00;97026.94;7356825;19;20047;-67
2023/10/20 03:46:18;;;;;;;8.45;4.65;;;;;;;17.21;100.00;97029.59;7359242;19;20604;-67
2023/10/20 03:48:45;;;;;;;4.97;3.75;;;;;;;17.21;100.00;97016.31;7350986;19;20498;-66
2023/10/20 03:51:12;;;;;;;6.80;4.32;;;;;;;17.22;100.00;97020.50;7356688;19;21026;-65
2023/10/20 03:53:54;;;;;;;11.93;4.07;;;;;;;17.21;100.00;97023.47;7358624;19;20086;-66
2023/10/20 03:56:23;;;;;;;4.45;2.47;;;;;;;17.20;100.00;97024.56;7358568;19;20029;-66
2023/10/20 03:58:50;;;;;;;2.72;1.35;;;;;;;17.20;100.00;97022.69;7356604;19;20208;-66
2023/10/20 04:01:17;;;;;;;2.88;1.20;;;;;;;17.19;100.00;97018.44;7360438;19;20883;-66
2023/10/20 04:03:50;;;;;;;3.83;1.50;;;;;;;17.17;100.00;97017.19;7352399;19;20038;-65
2023/10/20 04:06:19;;;;;;;4.03;1.55;;;;;;;17.17;100.00;97017.94;7359432;19;20016;-67
2023/10/20 04:08:46;;;;;;;4.47;1.75;;;;;;;17.16;100.00;97023.56;7358861;19;20026;-66
2023/10/20 04:11:13;;;;;;;5.43;2.75;;;;;;;17.13;100.00;97026.78;7361148;19;20835;-67
2023/10/20 04:13:40;;;;;;;4.65;2.55;;;;;;;17.12;100.00;97035.84;7357069;19;20689;-68
2023/10/20 04:16:12;;;;;;;8.20;3.38;;;;;;;17.12;100.00;97022.56;7358154;19;20021;-67
2023/10/20 04:18:41;;;;;;;7.75;5.53;;;;;;;17.12;100.00;97025.97;7353027;19;20506;-66
2023/10/20 04:21:11;;;;;;;11.38;7.28;;;;;;;17.14;100.00;97045.09;7359839;19;20018;-67
2023/10/20 04:23:40;;;;;;;11.30;7.65;;;;;;;17.11;100.00;97051.00;7355819;19;20089;-67
2023/10/20 04:26:20;;;;;;;12.15;6.95;;;;;;;17.11;100.00;97053.66;7355590;19;20014;-67
2023/10/20 04:28:51;;;;;;;9.82;6.50;;;;;;;17.10;100.00;97054.72;7357695;19;21309;-67
2023/10/20 04:58:34;;;;;;;3.60;0.73;;;;;;;16.80;100.00;97105.59;7354939;19;21868;-66
2023/10/20 05:01:17;;;;;;;1.90;0.40;;;;;;;16.77;100.00;97108.81;7357092;19;20014;-67
2023/10/20 05:03:47;;;;;;;1.83;0.30;;;;;;;16.69;100.00;97107.59;7351829;19;20058;-67
2023/10/20 05:06:26;;;;;;;1.58;0.20;;;;;;;16.64;100.00;97097.81;7356891;19;20042;-68
2023/10/20 05:08:53;;;;;;;0.50;0.13;;;;;;;16.63;100.00;97092.78;7352405;19;20074;-67
2023/10/20 05:11:20;;;;;;;1.08;0.20;;;;;;;16.58;100.00;97092.81;7356115;19;20018;-65
2023/10/20 05:13:47;;;;;;;0.88;0.30;;;;;;;16.58;100.00;97095.47;7351930;19;20014;-67
2023/10/20 05:16:14;;;;;;;1.80;0.20;;;;;;;16.58;100.00;97088.34;7357109;19;20018;-66
2023/10/20 05:18:42;;;;;;;1.63;0.30;;;;;;;16.58;100.00;97079.56;7350456;19;20010;-66
2023/10/20 05:21:12;;;;;;;1.58;0.20;;;;;;;16.58;100.00;97091.00;7356402;19;20014;-67
2023/10/20 05:23:40;;;;;;;2.42;0.30;;;;;;;16.57;100.00;97089.38;7354381;19;20027;-67
2023/10/20 05:26:09;;;;;;;1.45;0.20;;;;;;;16.55;100.00;97094.19;7356027;19;20057;-67
2023/10/20 05:28:36;;;;;;;2.47;0.20;;;;;;;16.52;100.00;97089.44;7354497;19;20010;-67
2023/10/20 05:31:05;;;;;;;1.27;0.40;;;;;;;16.53;100.00;97093.69;7356567;19;20358;-67
2023/10/20 05:33:32;;;;;;;2.20;0.40;;;;;;;16.55;100.00;97110.13;7349652;19;20015;-67
2023/10/20 05:36:03;;;;;;;1.20;0.30;;;;;;;16.56;100.00;97100.28;7354657;19;20018;-66
2023/10/20 05:38:31;;;;;;;3.40;0.50;;;;;;;16.53;100.00;97101.63;7354318;19;20030;-67
2023/10/20 05:40:59;;;;;;;1.33;0.40;;;;;;;16.55;100.00;97096.06;7355634;19;20011;-67
2023/10/20 05:43:26;;;;;;;2.88;0.40;;;;;;;16.51;100.00;97098.47;7354270;19;20837;-67
2023/10/20 05:45:54;;;;;;;3.08;0.50;;;;;;;16.52;100.00;97101.91;7354778;19;20018;-68
2023/10/20 05:48:21;;;;;;;5.40;1.88;;;;;;;16.52;100.00;97093.94;7351457;19;20015;-66
2023/10/20 05:50:54;;;;;;;1.83;0.70;;;;;;;16.55;100.00;97093.41;7352168;19;20010;-66
2023/10/20 05:53:21;;;;;;;3.85;1.50;;;;;;;16.56;100.00;97102.91;7350629;19;20316;-67
2023/10/20 05:55:48;;;;;;;2.47;0.70;;;;;;;16.56;100.00;97097.63;7366157;19;20971;-66
2023/10/20 05:58:15;;;;;;;2.35;0.80;;;;;;;16.57;100.00;97099.19;7368435;19;20014;-66
2023/10/20 06:00:42;;;;;;;5.82;0.77;;;;;;;16.53;100.00;97096.34;7366797;19;20019;-66
2023/10/20 06:03:28;;;;;;;4.80;1.00;;;;;;;16.54;100.00;97094.47;7352312;19;20018;-67
2023/10/20 06:06:03;;;;;;;3.33;0.88;;;;;;;16.54;100.00;97105.09;7360909;19;20620;-67
2023/10/20 06:08:30;;;;;;;3.72;1.00;;;;;;;16.53;100.00;97106.94;7359267;19;20371;-66
2023/10/20 06:11:05;;;;;;;4.00;1.00;;;;;;;16.53;100.00;97108.81;7362125;19;20014;-66
2023/10/20 06:13:34;;;;;;;3.22;1.40;;;;;;;16.52;100.00;97118.63;7356156;19;20282;-67
2023/10/20 06:16:09;;;;;;;7.03;1.00;;;;;;;16.52;100.00;97117.84;7362900;19;20014;-66
2023/10/20 06:18:42;;;;;;;3.47;1.45;;;;;;;16.51;100.00;97114.38;7350600;19;20043;-67
2023/10/20 06:21:14;;;;;;;4.18;1.20;;;;;;;16.56;100.00;97109.03;7360671;19;20090;-66
2023/10/20 06:23:41;;;;;;;4.25;1.10;;;;;;;16.56;100.00;97109.03;7361324;19;20049;-67
2023/10/20 06:26:09;;;;;;;4.70;0.98;;;;;;;16.56;100.00;97103.72;7361358;19;20019;-67
2023/10/20 06:28:36;;;;;;;5.10;1.13;;;;;;;16.58;100.00;97106.91;7359425;19;20091;-67
2023/10/20 06:31:27;;;;;;;3.17;0.88;;;;;;;16.58;100.00;97108.75;7358959;19;20662;-67
2023/10/20 06:34:07;;;;;;;3.45;0.80;;;;;;;16.57;100.00;97115.13;7357541;19;20027;-67
2023/10/20 06:36:34;;;;;;;3.00;0.80;;;;;;;16.56;100.00;97114.34;7358521;19;20051;-66
2023/10/20 06:39:03;;;;;;;2.55;0.77;;;;;;;16.51;100.00;97111.75;7359042;19;20507;-66
2023/10/20 06:41:30;;;;;;;5.25;1.98;;;;;;;16.51;100.00;97111.75;7360850;19;21303;-68
2023/10/20 06:43:57;;;;;;;3.63;0.93;;;;;;;16.52;100.00;97115.19;7357572;19;20404;-66
2023/10/20 06:46:27;;;;;;;2.90;0.63;;;;;;;16.53;100.00;97117.56;7364004;19;20529;-66
2023/10/20 06:48:54;;;;;;;4.03;0.63;;;;;;;16.55;100.00;97120.75;7360786;19;20029;-67
2023/10/20 06:51:21;;;;;;;6.07;1.00;;;;;;;16.54;100.00;97111.19;7360802;19;20021;-67
2023/10/20 06:53:48;;;;;;;1.55;0.80;;;;;;;16.51;100.00;97111.75;7349841;19;20101;-67
2023/10/20 06:56:15;;;;;;;2.08;0.85;;;;;;;16.52;100.00;97118.63;7361402;19;20021;-67
2023/10/20 06:58:48;;;;;;;2.88;1.38;;;;;;;16.51;100.00;97121.56;7353763;19;20040;-67
2023/10/20 07:01:15;;;;;;;2.65;1.13;;;;;;;16.50;100.00;97114.69;7356171;19;20367;-67
2023/10/20 07:03:42;;;;;;;2.38;1.30;;;;;;;16.50;100.00;97120.00;7355378;19;20018;-67
2023/10/20 07:06:11;;;;;;;4.28;2.15;;;;;;;16.52;100.00;97113.31;7361488;19;20018;-67
2023/10/20 07:08:38;;;;;;;3.28;1.77;;;;;;;16.53;100.00;97114.91;7358395;19;20059;-67
2023/10/20 07:11:05;;;;;;;5.97;2.15;;;;;;;16.53;100.00;97108.81;7361743;19;20115;-67
2023/10/20 07:13:33;;;;;;;4.97;2.13;;;;;;;16.49;100.00;97105.94;7351185;19;20015;-67
2023/10/20 07:16:00;;;;;;;4.95;2.30;;;;;;;16.51;100.00;97108.28;7356748;19;20605;-67
2023/10/20 07:18:27;;;;;;;4.97;3.28;;;;;;;16.52;100.00;97105.34;7353266;19;20464;-68
2023/10/20 07:20:55;;;;;;;21.35;4.15;;;;;;;16.52;100.00;97113.31;7359594;19;20018;-67
2023/10/20 07:23:25;;;;;;;4.40;2.60;;;;;;;16.53;100.00;97112.25;7358711;19;20344;-67
2023/10/20 07:25:52;;;;;;;10.00;2.40;;;;;;;16.49;100.00;97113.91;7357331;19;20014;-68
2023/10/20 07:28:21;;;;;;;4.75;2.58;;;;;;;16.47;100.00;97116.03;7354565;19;20018;-67
2023/10/20 07:30:49;;;;;;;5.88;2.92;;;;;;;16.48;100.00;97109.66;7358572;19;20022;-67
2023/10/20 07:33:17;;;;;;;5.38;3.13;;;;;;;16.49;100.00;97121.06;7356190;19;20025;-67
2023/10/20 07:35:44;;;;;;;4.85;3.10;;;;;;;16.49;100.00;97116.56;7359486;19;21304;-67
2023/10/20 07:38:14;;;;;;;4.30;3.10;;;;;;;16.53;100.00;97130.84;7354788;19;20025;-67
2023/10/20 07:40:41;;;;;;;4.13;2.70;;;;;;;16.53;100.00;97130.03;7360066;19;20566;-66
2023/10/20 07:43:08;;;;;;;6.03;2.83;;;;;;;16.52;100.00;97133.75;7354752;19;20074;-65
2023/10/20 07:45:40;;;;;;;4.00;2.80;;;;;;;16.51;100.00;97126.88;7357865;19;20741;-67
2023/10/20 07:48:11;;;;;;;5.07;2.95;;;;;;;16.48;100.00;97130.09;7354609;19;20018;-66
2023/10/20 07:50:38;;;;;;;9.02;4.38;;;;;;;16.49;100.00;97129.03;7358921;19;20389;-66
2023/10/20 07:53:09;;;;;;;7.15;4.43;;;;;;;16.50;100.00;97125.31;7355031;19;20055;-67
2023/10/20 07:55:36;;;;;;;4.50;2.95;;;;;;;16.50;100.00;97127.97;7353348;19;20019;-68
2023/10/20 07:58:03;;;;;;;5.78;3.58;;;;;;;16.50;100.00;97123.44;7357413;19;20026;-67
2023/10/20 08:00:31;;;;;;;6.00;3.20;;;;;;;16.49;100.00;97127.16;7356970;19;20038;-67
2023/10/20 08:02:58;;;;;;;5.53;2.58;;;;;;;16.49;100.00;97132.47;7356383;19;21953;-66
2023/10/20 08:05:25;;;;;;;4.10;2.80;;;;;;;16.49;100.00;97134.34;7353629;19;20037;-66
2023/10/20 08:07:53;;;;;;;4.13;2.50;;;;;;;16.50;100.00;97130.63;7357930;19;20022;-67
2023/10/20 08:10:21;;;;;;;3.85;2.22;;;;;;;16.45;100.00;97134.13;7357423;19;20017;-68
2023/10/20 08:12:48;;;;;;;3.53;1.80;;;;;;;16.44;100.00;97135.19;7355775;19;20595;-67
2023/10/20 08:15:16;;;;;;;4.10;2.13;;;;;;;16.46;100.00;97137.53;7358011;19;20105;-68
2023/10/20 08:17:45;;;;;;;3.80;2.15;;;;;;;16.46;100.00;97132.22;7355158;19;20491;-67
2023/10/20 08:20:12;;;;;;;2.88;2.08;;;;;;;16.43;100.00;97152.19;7357402;19;20014;-68
2023/10/20 08:22:40;;;;;;;5.22;2.30;;;;;;;16.46;100.00;97148.16;7356721;19;20022;-68
2023/10/20 08:25:08;;;;;;;3.33;1.95;;;;;;;16.47;100.00;97153.19;7352445;19;20026;-69
2023/10/20 08:27:36;;;;;;;4.55;2.20;;;;;;;16.49;100.00;97159.00;7353430;19;20029;-68
2023/10/20 08:30:05;;;;;;;4.82;1.63;;;;;;;16.50;100.00;97168.56;7352576;19;20029;-68
2023/10/20 08:32:32;;;;;;;5.43;2.10;;;;;;;16.51;100.00;97174.63;7348404;19;20346;-68
2023/10/20 08:34:59;;;;;;;6.72;2.10;;;;;;;16.49;100.00;97176.81;7364442;19;20514;-66
2023/10/20 08:37:26;;;;;;;4.35;2.20;;;;;;;16.46;100.00;97175.47;7358853;19;20020;-65
2023/10/20 08:39:54;;;;;;;6.65;2.75;;;;;;;16.45;100.00;97171.28;7357153;19;20030;-67
2023/10/20 08:42:21;;;;;;;7.70;2.10;;;;;;;16.40;100.00;97178.50;7354301;19;20045;-67
2023/10/20 08:44:50;;;;;;;25.45;4.10;;;;;;;16.41;100.00;97175.53;7357298;19;20495;-67
2023/10/20 08:47:17;;;;;;;6.53;2.25;;;;;;;16.44;100.00;97164.38;7354609;19;20101;-67
2023/10/20 08:49:46;;;;;;;6.22;2.15;;;;;;;16.48;100.00;97180.53;7358424;19;20018;-67
2023/10/20 08:52:13;;;;;;;4.97;2.33;;;;;;;16.48;100.00;97175.22;7353340;19;20010;-67
2023/10/20 08:54:41;;;;;;;6.88;2.13;;;;;;;16.45;100.00;97175.78;7349850;19;20140;-67
2023/10/20 08:57:08;;;;;;;7.15;2.22;;;;;;;16.45;100.00;97175.78;7352438;19;20014;-63
2023/10/20 08:59:35;;;;;;;15.10;4.18;;;;;;;16.40;100.00;97176.63;7356504;19;20047;-64
2023/10/20 09:02:03;;;;;;;11.80;3.95;;;;;;;16.38;100.00;97172.66;7353063;19;20483;-64
2023/10/20 09:04:31;;;;;;;11.52;3.70;;;;;;;16.43;100.00;97181.38;7349442;19;20015;-63
2023/10/20 09:07:12;;;;;;;6.90;3.10;;;;;;;16.46;100.00;97172.84;7354241;19;20018;-63
2023/10/20 09:09:39;;;;;;;7.78;3.95;;;;;;;16.45;100.00;97175.78;7356587;19;20026;-63
2023/10/20 09:12:08;;;;;;;7.93;3.47;;;;;;;16.45;100.00;97171.28;7357825;19;20015;-64
2023/10/20 09:14:39;;;;;;;11.90;4.72;;;;;;;16.48;100.00;97175.22;7362132;19;20133;-64
2023/10/20 09:17:08;;;;;;;8.57;4.72;;;;;;;16.52;100.00;97174.38;7356290;19;20051;-65
2023/10/20 09:19:35;;;;;;;13.93;5.32;;;;;;;16.54;100.00;97182.84;7358295;19;20014;-65
2023/10/20 09:22:02;;;;;;;10.95;5.75;;;;;;;16.59;100.00;97182.03;7359694;19;20009;-64
2023/10/20 09:24:31;;;;;;;12.77;5.25;;;;;;;16.63;100.00;97181.19;7358133;19;20022;-65
2023/10/20 09:26:59;;;;;;;10.55;5.32;;;;;;;16.63;100.00;97183.06;7360184;19;20043;-64
2023/10/20 09:29:29;;;;;;;35.80;6.28;;;;;;;16.62;100.00;97186.78;7353673;19;20089;-64
2023/10/20 09:32:00;;;;;;;12.15;6.13;;;;;;;16.66;100.00;97190.44;7356385;19;20019;-63
2023/10/20 09:34:27;;;;;;;8.85;4.57;;;;;;;16.66;100.00;97193.09;7351906;19;20146;-64
2023/10/20 09:36:56;;;;;;;8.75;5.00;;;;;;;16.65;100.00;97184.38;7355081;19;20026;-64
2023/10/20 09:39:38;;;;;;;10.90;6.35;;;;;;;16.67;100.00;97189.38;7358170;19;20576;-64
2023/10/20 09:42:05;;;;;;;8.63;4.93;;;;;;;16.71;100.00;97202.91;7362628;19;20022;-65
2023/10/20 09:44:46;;;;;;;10.98;5.72;;;;;;;16.73;100.00;97208.69;7362143;19;20022;-65
2023/10/20 09:47:28;;;;;;;11.88;4.63;;;;;;;16.74;100.00;97220.91;7361648;19;20014;-64
2023/10/20 09:49:57;;;;;;;9.15;4.65;;;;;;;16.71;100.00;97211.63;7361357;19;20110;-65
2023/10/20 09:52:34;;;;;;;8.23;4.20;;;;;;;16.77;100.00;97209.72;7358732;19;20043;-64
2023/10/20 09:55:01;;;;;;;8.05;4.03;;;;;;;16.74;100.00;97212.94;7361765;19;20534;-65
2023/10/20 09:57:29;;;;;;;8.20;3.40;;;;;;;16.75;100.00;97203.91;7354604;19;20014;-64
2023/10/20 09:59:56;;;;;;;10.57;3.65;;;;;;;16.75;100.00;97202.03;7340756;19;20018;-63
2023/10/20 10:02:30;;;;;;;6.82;3.67;;;;;;;16.80;100.00;97209.94;7354930;19;20482;-64
2023/10/20 10:04:57;;;;;;;10.88;4.28;;;;;;;16.84;100.00;97218.94;7357311;19;20010;-63
2023/10/20 10:07:34;;;;;;;6.97;2.92;;;;;;;16.85;100.00;97220.53;7359471;19;20015;-64
2023/10/20 10:10:03;;;;;;;5.75;2.20;;;;;;;16.83;100.00;97229.81;7361462;19;20715;-65
2023/10/20 10:12:34;;;;;;;6.68;4.45;;;;;;;16.80;100.00;97235.72;7361477;19;20010;-63
2023/10/20 10:15:07;;;;;;;5.78;2.70;;;;;;;16.79;100.00;97245.53;7360593;19;20010;-64
2023/10/20 10:17:45;;;;;;;4.38;1.95;;;;;;;16.81;100.00;97242.63;7356818;19;20574;-65
2023/10/20 10:20:24;;;;;;;6.28;1.60;;;;;;;16.82;100.00;97244.16;7357232;19;20086;-64
2023/10/20 10:23:06;;;;;;;4.05;1.90;;;;;;;16.77;100.00;97237.06;7360632;19;20014;-64
2023/10/20 10:25:35;;;;;;;4.45;1.90;;;;;;;16.76;100.00;97243.44;7364684;19;20042;-63
2023/10/20 10:28:09;;;;;;;5.13;0.85;;;;;;;16.77;100.00;97242.38;7363735;19;20025;-63
2023/10/20 10:30:37;;;;;;;2.10;0.57;;;;;;;16.76;100.00;97246.09;7363888;19;20010;-64
2023/10/20 10:33:11;;;;;;;3.80;0.50;;;;;;;16.75;100.00;97241.06;7354578;19;20018;-64
2023/10/20 10:35:46;;;;;;;2.25;0.50;;;;;;;16.76;100.00;97247.97;7360529;19;20022;-64
2023/10/20 10:38:21;;;;;;;3.60;0.30;;;;;;;16.74;100.00;97242.94;7359467;19;20156;-65
2023/10/20 10:40:55;;;;;;;3.20;0.30;;;;;;;16.74;100.00;97240.28;7360158;19;20238;-65
2023/10/20 10:43:22;;;;;;;1.08;0.30;;;;;;;16.74;100.00;97244.78;7358273;19;20021;-63
2023/10/20 10:45:52;;;;;;;1.85;0.30;;;;;;;16.70;100.00;97254.41;7360384;19;20021;-63
2023/10/20 10:48:25;;;;;;;3.80;0.40;;;;;;;16.66;100.00;97254.94;7356504;19;20019;-63
2023/10/20 10:50:53;;;;;;;1.38;0.20;;;;;;;16.66;100.00;97254.94;7357632;19;20021;-64
2023/10/20 10:53:21;;;;;;;2.20;0.35;;;;;;;16.66;100.00;97254.94;7359208;19;20010;-64
2023/10/20 10:55:58;;;;;;;1.48;0.30;;;;;;;16.68;100.00;97252.03;7359553;19;20014;-64
2023/10/20 10:58:25;;;;;;;2.28;0.20;;;;;;;16.73;100.00;97253.81;7355961;19;20027;-65
2023/10/20 11:00:54;;;;;;;1.67;0.28;;;;;;;16.75;100.00;97247.19;7360433;19;20138;-64
2023/10/20 11:03:22;;;;;;;1.23;0.30;;;;;;;16.77;100.00;97245.03;7354439;19;21585;-64
2023/10/20 11:05:51;;;;;;;4.93;0.20;;;;;;;16.78;100.00;97259.09;7360257;19;20494;-64
2023/10/20 11:08:19;;;;;;;2.15;1.15;;;;;;;16.77;100.00;97260.16;7360067;19;20014;-64
2023/10/20 11:10:49;;;;;;;1.25;0.30;;;;;;;16.78;100.00;97253.78;7360152;19;20022;-64
2023/10/20 11:13:16;;;;;;;3.42;0.28;;;;;;;16.80;100.00;97249.00;7356928;19;20017;-64
2023/10/20 11:15:49;;;;;;;2.38;0.52;;;;;;;16.80;100.00;97252.44;7360702;19;20014;-65
2023/10/20 11:18:16;;;;;;;1.95;0.25;;;;;;;16.76;100.00;97256.69;7357901;19;20007;-64
2023/10/20 11:20:47;;;;;;;1.30;0.22;;;;;;;16.72;100.00;97254.91;7360322;19;20033;-64
2023/10/20 11:23:19;;;;;;;2.15;0.30;;;;;;;16.72;100.00;97265.50;7358577;19;20632;-64
2023/10/20 11:25:48;;;;;;;1.38;0.30;;;;;;;16.68;100.00;97249.38;7360412;19;20010;-64
2023/10/20 11:28:16;;;;;;;1.02;0.40;;;;;;;16.72;100.00;97260.22;7356723;19;20084;-65
2023/10/20 11:30:45;;;;;;;1.17;0.50;;;;;;;16.75;100.00;97257.81;7354999;19;20086;-64
2023/10/20 11:33:13;;;;;;;1.55;0.35;;;;;;;16.76;100.00;97238.13;7349155;19;20048;-64
2023/10/20 11:35:43;;;;;;;1.92;0.40;;;;;;;16.78;100.00;97241.28;7358864;19;20125;-64
2023/10/20 11:38:14;;;;;;;0.88;0.32;;;;;;;16.77;100.00;97237.06;7351306;19;20126;-64
2023/10/20 11:40:42;;;;;;;1.40;0.50;;;;;;;16.79;100.00;97240.22;7356643;19;20010;-65
2023/10/20 11:43:09;;;;;;;2.28;0.52;;;;;;;16.79;100.00;97239.44;7356366;19;20015;-65
2023/10/20 11:45:35;;;;;;;2.40;0.35;;;;;;;16.78;100.00;97235.97;7358654;19;20616;-65
2023/10/20 11:48:03;;;;;;;2.08;0.50;;;;;;;16.76;100.00;97243.44;7347918;19;20124;-64
2023/10/20 11:50:30;;;;;;;1.20;0.40;;;;;;;16.77;100.00;97244.22;7351286;19;20708;-63
2023/10/20 11:52:57;;;;;;;4.40;1.85;;;;;;;16.77;100.00;97246.88;7356074;19;20045;-64
2023/10/20 11:55:24;;;;;;;1.85;0.50;;;;;;;16.78;100.00;97241.28;7355924;19;20078;-64
2023/10/20 11:57:51;;;;;;;2.25;0.30;;;;;;;16.80;100.00;97238.38;7354881;19;20545;-65